createdAt,value
2017-09-11T00:00:50.363Z,3.80
2017-09-11T00:03:18.222Z,3.50
2017-09-11T00:05:46.052Z,3.50
2017-09-11T00:08:13.917Z,3.83
2017-09-11T00:10:41.740Z,3.30
2017-09-11T00:13:09.556Z,4.00
2017-09-11T00:15:37.373Z,3.60
2017-09-11T00:18:05.191Z,3.17
2017-09-11T00:20:33.044Z,3.50
2017-09-11T00:23:00.895Z,3.60
2017-09-11T00:25:28.745Z,3.17
2017-09-11T00:27:56.593Z,3.33
2017-09-11T00:30:24.412Z,4.03
2017-09-11T00:32:52.250Z,3.37
2017-09-11T00:35:20.092Z,3.67
2017-09-11T00:37:47.928Z,4.27
2017-09-11T00:40:15.817Z,3.60
2017-09-11T00:42:43.692Z,3.30
2017-09-11T00:45:11.516Z,3.73
2017-09-11T00:47:39.363Z,4.23
2017-09-11T00:50:07.188Z,5.67
2017-09-11T00:52:35.005Z,3.90
2017-09-11T00:55:02.856Z,3.70
2017-09-11T00:57:30.696Z,3.40
2017-09-11T00:59:58.557Z,3.60
2017-09-11T01:02:26.401Z,4.47
2017-09-11T01:04:54.228Z,4.07
2017-09-11T01:07:22.068Z,3.23
2017-09-11T01:09:49.927Z,3.30
2017-09-11T01:12:17.761Z,4.03
2017-09-11T01:14:45.576Z,4.20
2017-09-11T01:17:13.387Z,4.00
2017-09-11T01:19:41.205Z,4.20
2017-09-11T01:22:09.053Z,4.50
2017-09-11T01:24:36.877Z,4.03
2017-09-11T01:27:04.698Z,4.83
2017-09-11T01:29:32.519Z,4.80
2017-09-11T01:32:00.372Z,4.27
2017-09-11T01:34:28.176Z,3.83
2017-09-11T01:36:55.986Z,3.90
2017-09-11T01:39:23.792Z,5.00
2017-09-11T01:41:51.617Z,4.10
2017-09-11T01:44:19.449Z,3.60
2017-09-11T01:46:47.287Z,4.20
2017-09-11T01:49:15.177Z,4.07
2017-09-11T01:51:43.010Z,5.13
2017-09-11T01:54:10.835Z,4.60
2017-09-11T01:56:38.661Z,4.10
2017-09-11T01:59:06.489Z,3.80
2017-09-11T02:01:34.312Z,4.27
2017-09-11T02:04:02.132Z,4.30
2017-09-11T02:06:29.953Z,5.03
2017-09-11T02:08:57.784Z,4.70
2017-09-11T02:11:25.592Z,4.13
2017-09-11T02:13:53.418Z,4.40
2017-09-11T02:16:21.265Z,4.20
2017-09-11T02:18:49.088Z,4.87
2017-09-11T02:21:16.950Z,4.30
2017-09-11T02:23:44.814Z,4.63
2017-09-11T02:26:12.642Z,4.40
2017-09-11T02:29:17.413Z,5.07
2017-09-11T02:31:45.236Z,4.57
2017-09-11T02:34:13.088Z,4.60
2017-09-11T02:36:40.905Z,3.77
2017-09-11T02:39:08.777Z,4.10
2017-09-11T02:41:36.597Z,4.50
2017-09-11T02:44:04.440Z,4.73
2017-09-11T02:46:32.269Z,3.80
2017-09-11T02:49:00.109Z,3.97
2017-09-11T02:51:27.948Z,4.53
2017-09-11T02:53:55.787Z,4.30
2017-09-11T02:56:23.650Z,4.53
2017-09-11T02:58:51.493Z,4.87
2017-09-11T03:01:19.337Z,4.57
2017-09-11T03:03:47.189Z,3.67
2017-09-11T03:06:15.025Z,4.07
2017-09-11T03:08:42.853Z,4.00
2017-09-11T03:11:10.683Z,3.60
2017-09-11T03:13:38.512Z,4.40
2017-09-11T03:16:06.367Z,4.07
2017-09-11T03:18:34.196Z,3.70
2017-09-11T03:21:02.061Z,4.77
2017-09-11T03:23:29.892Z,4.00
2017-09-11T03:25:57.737Z,4.70
2017-09-11T03:28:25.557Z,4.20
2017-09-11T03:30:53.393Z,3.57
2017-09-11T03:33:21.224Z,4.20
2017-09-11T03:35:49.044Z,4.27
2017-09-11T03:38:16.865Z,4.17
2017-09-11T03:40:44.681Z,3.47
2017-09-11T03:43:12.545Z,4.30
2017-09-11T03:45:40.386Z,4.47
2017-09-11T03:48:08.265Z,4.43
2017-09-11T03:50:36.109Z,4.20
2017-09-11T03:53:03.944Z,3.63
2017-09-11T03:55:31.768Z,3.70
2017-09-11T03:57:59.606Z,3.60
2017-09-11T04:00:27.437Z,3.60
2017-09-11T04:02:55.295Z,3.23
2017-09-11T04:05:23.128Z,3.47
2017-09-11T04:07:50.956Z,3.60
2017-09-11T04:10:18.801Z,3.70
2017-09-11T04:12:46.628Z,3.27
2017-09-11T04:15:14.472Z,3.50
2017-09-11T04:17:42.324Z,3.67
2017-09-11T04:20:10.156Z,3.70
2017-09-11T04:22:37.982Z,3.80
2017-09-11T04:25:05.805Z,2.90
2017-09-11T04:27:33.624Z,3.23
2017-09-11T04:30:01.480Z,3.37
2017-09-11T04:32:29.350Z,3.30
2017-09-11T04:34:57.266Z,3.40
2017-09-11T04:37:25.105Z,3.07
2017-09-11T04:39:52.966Z,4.17
2017-09-11T04:42:20.808Z,3.20
2017-09-11T04:44:48.632Z,3.90
2017-09-11T04:47:16.441Z,4.33
2017-09-11T04:49:44.244Z,3.83
2017-09-11T04:52:12.072Z,4.20
2017-09-11T04:54:39.921Z,4.70
2017-09-11T04:57:07.768Z,4.97
2017-09-11T04:59:35.592Z,4.50
2017-09-11T05:02:03.432Z,4.33
2017-09-11T05:04:31.260Z,4.67
2017-09-11T05:06:59.108Z,4.47
2017-09-11T05:09:26.949Z,4.20
2017-09-11T05:11:54.780Z,4.70
2017-09-11T05:14:22.612Z,5.03
2017-09-11T05:16:50.440Z,4.00
2017-09-11T05:19:18.245Z,4.20
2017-09-11T05:21:46.068Z,4.47
2017-09-11T05:24:13.910Z,4.37
2017-09-11T05:26:41.718Z,3.90
2017-09-11T05:29:09.560Z,3.20
2017-09-11T05:31:37.411Z,3.83
2017-09-11T05:34:05.312Z,4.33
2017-09-11T05:36:33.183Z,3.40
2017-09-11T05:39:01.008Z,3.50
2017-09-11T05:41:28.850Z,4.20
2017-09-11T05:43:57.696Z,3.37
2017-09-11T05:46:25.517Z,4.57
2017-09-11T05:48:53.349Z,4.10
2017-09-11T05:51:21.186Z,3.73
2017-09-11T05:53:49.022Z,5.53
2017-09-11T05:56:16.887Z,4.00
2017-09-11T05:58:44.708Z,3.67
2017-09-11T06:01:12.584Z,3.90
2017-09-11T06:03:41.385Z,3.70
2017-09-11T06:06:09.254Z,3.77
2017-09-11T06:08:37.114Z,6.30
2017-09-11T06:11:05.021Z,3.60
2017-09-11T06:13:32.901Z,4.13
2017-09-11T06:16:00.829Z,3.23
2017-09-11T06:18:28.649Z,3.30
2017-09-11T06:20:56.506Z,3.40
2017-09-11T06:23:24.343Z,3.73
2017-09-11T06:25:52.194Z,3.63
2017-09-11T06:28:20.025Z,3.47
2017-09-11T06:30:47.845Z,3.03
2017-09-11T06:33:16.768Z,3.50
2017-09-11T06:35:44.625Z,3.37
2017-09-11T06:38:12.492Z,3.53
2017-09-11T06:40:40.341Z,4.00
2017-09-11T06:43:08.188Z,4.00
2017-09-11T06:45:36.007Z,3.80
2017-09-11T06:48:03.849Z,3.20
2017-09-11T06:50:31.673Z,3.90
2017-09-11T06:52:59.519Z,3.93
2017-09-11T06:55:27.318Z,3.00
2017-09-11T06:57:55.151Z,3.23
2017-09-11T07:00:22.940Z,3.80
2017-09-11T07:02:50.772Z,3.43
2017-09-11T07:05:18.598Z,3.47
2017-09-11T07:07:46.408Z,4.50
2017-09-11T07:10:14.236Z,3.43
2017-09-11T07:12:48.325Z,3.50
2017-09-11T07:15:16.089Z,4.10
2017-09-11T07:17:43.909Z,5.00
2017-09-11T07:20:11.705Z,3.40
2017-09-11T07:22:39.541Z,6.40
2017-09-11T07:25:07.333Z,3.20
2017-09-11T07:27:35.157Z,3.43
2017-09-11T07:30:02.973Z,3.20
2017-09-11T07:32:30.792Z,3.70
2017-09-11T07:34:58.641Z,3.00
2017-09-11T07:37:26.573Z,3.27
2017-09-11T07:39:54.380Z,3.20
2017-09-11T07:42:22.209Z,2.90
2017-09-11T07:44:50.088Z,2.67
2017-09-11T07:47:17.908Z,3.60
2017-09-11T07:49:45.716Z,3.40
2017-09-11T07:52:13.517Z,3.47
2017-09-11T07:54:41.339Z,3.50
2017-09-11T07:57:09.149Z,3.90
2017-09-11T07:59:36.984Z,3.50
2017-09-11T08:02:04.793Z,3.00
2017-09-11T08:04:32.684Z,2.23
2017-09-11T08:07:00.506Z,3.30
2017-09-11T08:09:28.337Z,2.60
2017-09-11T08:11:56.156Z,2.70
2017-09-11T08:14:23.984Z,3.00
2017-09-11T08:16:51.796Z,3.20
2017-09-11T08:19:19.639Z,2.80
2017-09-11T08:21:47.461Z,3.00
2017-09-11T08:24:15.258Z,2.77
2017-09-11T08:26:43.093Z,2.60
2017-09-11T08:29:10.915Z,3.23
2017-09-11T08:31:38.732Z,3.10
2017-09-11T08:34:06.540Z,2.80
2017-09-11T08:36:34.350Z,3.00
2017-09-11T08:39:02.168Z,2.97
2017-09-11T08:41:29.998Z,3.23
2017-09-11T08:43:57.824Z,3.37
2017-09-11T08:46:25.672Z,3.03
2017-09-11T08:48:53.490Z,4.77
2017-09-11T08:51:21.345Z,2.73
2017-09-11T08:53:49.181Z,2.83
2017-09-11T08:56:17.012Z,2.93
2017-09-11T08:58:44.830Z,3.77
2017-09-11T09:01:12.648Z,3.20
2017-09-11T09:03:40.488Z,3.27
2017-09-11T09:06:08.330Z,3.40
2017-09-11T09:08:36.144Z,3.50
2017-09-11T09:11:04.113Z,3.60
2017-09-11T09:13:31.923Z,3.27
2017-09-11T09:15:59.764Z,3.23
2017-09-11T09:18:27.567Z,3.40
2017-09-11T09:20:55.393Z,3.77
2017-09-11T09:23:23.228Z,3.90
2017-09-11T09:25:51.057Z,3.77
2017-09-11T09:28:18.868Z,3.90
2017-09-11T09:30:46.668Z,3.53
2017-09-11T09:33:14.478Z,3.60
2017-09-11T09:35:42.302Z,3.07
2017-09-11T09:38:10.101Z,3.13
2017-09-11T09:40:37.911Z,3.50
2017-09-11T09:43:05.757Z,2.80
2017-09-11T09:45:33.590Z,3.13
2017-09-11T09:48:01.408Z,3.20
2017-09-11T09:50:29.230Z,2.90
2017-09-11T09:52:57.057Z,3.10
2017-09-11T09:55:24.881Z,4.17
2017-09-11T09:57:52.753Z,3.13
2017-09-11T10:00:20.620Z,3.20
2017-09-11T10:02:48.445Z,3.53
2017-09-11T10:05:16.266Z,3.50
2017-09-11T10:07:44.068Z,3.00
2017-09-11T10:10:11.870Z,3.73
2017-09-11T10:12:39.719Z,3.57
2017-09-11T10:15:07.553Z,4.13
2017-09-11T10:17:35.357Z,3.20
2017-09-11T10:20:03.213Z,3.40
2017-09-11T10:22:31.036Z,3.27
2017-09-11T10:24:58.883Z,3.73
2017-09-11T10:27:26.672Z,3.63
2017-09-11T10:29:54.494Z,4.20
2017-09-11T10:32:22.317Z,3.77
2017-09-11T10:34:50.148Z,3.37
2017-09-11T10:37:17.979Z,2.83
2017-09-11T10:39:45.789Z,3.60
2017-09-11T10:42:13.611Z,4.03
2017-09-11T10:44:41.428Z,3.33
2017-09-11T10:47:09.246Z,4.00
2017-09-11T10:49:37.072Z,2.87
2017-09-11T10:52:04.898Z,3.27
2017-09-11T10:54:32.748Z,3.77
2017-09-11T10:57:00.596Z,2.87
2017-09-11T10:59:28.432Z,2.80
2017-09-11T11:01:56.276Z,2.50
2017-09-11T11:04:24.109Z,3.77
2017-09-11T11:06:51.965Z,3.80
2017-09-11T11:09:19.781Z,3.20
2017-09-11T11:11:47.623Z,3.33
2017-09-11T11:14:15.444Z,3.33
2017-09-11T11:16:43.276Z,3.30
2017-09-11T11:19:11.089Z,3.23
2017-09-11T11:21:38.972Z,4.10
2017-09-11T11:24:06.776Z,3.50
2017-09-11T11:26:34.605Z,3.10
2017-09-11T11:29:02.430Z,3.13
2017-09-11T11:31:30.256Z,2.40
2017-09-11T11:33:58.080Z,2.80
2017-09-11T11:36:25.917Z,3.37
2017-09-11T11:38:53.740Z,3.10
2017-09-11T11:41:21.602Z,3.33
2017-09-11T11:43:49.432Z,2.83
2017-09-11T11:46:17.249Z,2.60
2017-09-11T11:48:45.065Z,3.83
2017-09-11T11:51:12.882Z,3.10
2017-09-11T11:53:40.714Z,3.77
2017-09-11T11:56:08.541Z,2.90
2017-09-11T11:58:36.369Z,3.17
2017-09-11T12:01:04.188Z,2.80
2017-09-11T12:03:31.998Z,3.10
2017-09-11T12:05:59.816Z,2.50
2017-09-11T12:08:27.637Z,2.90
2017-09-11T12:10:55.465Z,2.70
2017-09-11T12:13:23.314Z,2.60
2017-09-11T12:15:51.152Z,2.93
2017-09-11T12:18:18.989Z,2.27
2017-09-11T12:20:46.805Z,2.10
2017-09-11T12:23:14.669Z,2.47
2017-09-11T12:25:42.484Z,1.93
2017-09-11T12:28:10.302Z,1.90
2017-09-11T12:30:38.109Z,2.53
2017-09-11T12:33:05.287Z,2.50
2017-09-11T12:35:32.460Z,3.37
2017-09-11T12:37:58.533Z,3.00
2017-09-11T12:40:25.321Z,2.60
2017-09-11T12:42:51.387Z,2.80
2017-09-11T12:45:17.457Z,3.20
2017-09-11T12:47:43.505Z,2.57
2017-09-11T12:50:11.337Z,3.50
2017-09-11T12:52:39.153Z,3.10
2017-09-11T12:55:06.996Z,3.80
2017-09-11T12:57:34.813Z,3.47
2017-09-11T13:00:02.672Z,3.73
2017-09-11T13:02:30.492Z,3.27
2017-09-11T13:04:58.343Z,3.83
2017-09-11T13:07:26.168Z,3.20
2017-09-11T13:09:54.017Z,3.90
2017-09-11T13:12:21.833Z,4.20
2017-09-11T13:14:49.676Z,3.83
2017-09-11T13:17:17.491Z,2.67
2017-09-11T13:19:45.361Z,2.93
2017-09-11T13:22:13.193Z,2.70
2017-09-11T13:24:41.041Z,3.63
2017-09-11T13:27:08.944Z,3.30
2017-09-11T13:29:36.773Z,2.90
2017-09-11T13:32:04.617Z,3.37
2017-09-11T13:34:32.446Z,3.37
2017-09-11T13:37:00.284Z,2.70
2017-09-11T13:39:28.113Z,3.20
2017-09-11T13:41:55.963Z,3.07
2017-09-11T13:44:23.784Z,3.00
2017-09-11T13:46:51.616Z,2.63
2017-09-11T13:49:19.449Z,2.80
2017-09-11T13:51:47.255Z,2.90
2017-09-11T13:54:15.510Z,3.40
2017-09-11T13:56:43.360Z,3.30
2017-09-11T13:59:11.189Z,3.37
2017-09-11T14:01:39.005Z,2.70
2017-09-11T14:04:06.846Z,2.90
2017-09-11T14:06:34.677Z,3.60
2017-09-11T14:09:02.503Z,4.03
2017-09-11T14:11:30.346Z,3.63
2017-09-11T14:13:58.198Z,3.80
2017-09-11T14:16:26.089Z,3.47
2017-09-11T14:18:53.936Z,3.60
2017-09-11T14:21:21.745Z,3.30
2017-09-11T14:23:49.568Z,3.47
2017-09-11T14:26:17.403Z,3.50
2017-09-11T14:28:45.238Z,3.67
2017-09-11T14:31:13.095Z,3.70
2017-09-11T14:33:40.909Z,3.53
2017-09-11T14:36:08.753Z,4.40
2017-09-11T14:38:36.595Z,4.47
2017-09-11T14:41:04.444Z,4.50
2017-09-11T14:43:32.331Z,3.30
2017-09-11T14:46:00.194Z,3.73
2017-09-11T14:48:28.020Z,4.30
2017-09-11T14:50:55.851Z,5.10
2017-09-11T14:53:23.653Z,4.30
2017-09-11T14:55:51.476Z,4.47
2017-09-11T14:58:19.331Z,4.43
2017-09-11T15:00:47.177Z,6.20
2017-09-11T15:03:15.029Z,5.20
2017-09-11T15:05:42.851Z,5.30
2017-09-11T15:08:10.659Z,4.27
2017-09-11T15:10:38.478Z,4.87
2017-09-11T15:13:06.276Z,6.70
2017-09-11T15:15:34.092Z,5.77
2017-09-11T15:18:01.901Z,6.60
2017-09-11T15:20:29.708Z,4.83
2017-09-11T15:22:57.529Z,4.10
2017-09-11T15:25:25.360Z,7.00
2017-09-11T15:27:53.193Z,5.73
2017-09-11T15:30:21.012Z,4.07
2017-09-11T15:32:48.903Z,3.83
2017-09-11T15:35:16.732Z,3.90
2017-09-11T15:37:44.665Z,3.23
2017-09-11T15:40:12.469Z,3.90
2017-09-11T15:42:40.301Z,2.90
2017-09-11T15:45:08.100Z,3.50
2017-09-11T15:47:35.921Z,4.60
2017-09-11T15:50:03.726Z,4.00
2017-09-11T15:52:31.529Z,3.80
2017-09-11T15:54:59.354Z,5.03
2017-09-11T15:57:27.159Z,4.10
2017-09-11T15:59:54.981Z,4.87
2017-09-11T16:02:22.792Z,4.50
2017-09-11T16:04:50.625Z,5.40
2017-09-11T16:07:18.484Z,6.17
2017-09-11T16:09:46.344Z,5.40
2017-09-11T16:12:14.173Z,5.87
2017-09-11T16:14:42.004Z,6.10
2017-09-11T16:17:09.832Z,5.80
2017-09-11T16:19:37.706Z,6.70
2017-09-11T16:22:05.554Z,6.83
2017-09-11T16:24:33.396Z,5.73
2017-09-11T16:27:01.230Z,6.20
2017-09-11T16:29:29.092Z,6.37
2017-09-11T16:31:57.118Z,5.60
2017-09-11T16:34:24.960Z,4.57
2017-09-11T16:36:52.141Z,6.47
2017-09-11T16:39:18.184Z,6.00
2017-09-11T16:41:44.287Z,5.50
2017-09-11T16:44:10.376Z,5.17
2017-09-11T16:46:36.449Z,5.60
2017-09-11T16:49:02.511Z,4.27
2017-09-11T16:51:28.673Z,5.80
2017-09-11T16:53:54.741Z,5.17
2017-09-11T16:56:20.790Z,5.40
2017-09-11T16:58:46.889Z,6.97
2017-09-11T17:01:13.722Z,6.13
2017-09-11T17:03:40.058Z,6.47
2017-09-11T17:06:07.405Z,5.60
2017-09-11T17:08:34.042Z,5.57
2017-09-11T17:11:00.154Z,6.40
2017-09-11T17:13:26.325Z,5.47
2017-09-11T17:15:52.426Z,7.20
2017-09-11T17:18:25.799Z,5.93
2017-09-11T17:20:52.617Z,5.40
2017-09-11T17:23:18.693Z,6.63
2017-09-11T17:25:44.794Z,5.70
2017-09-11T17:28:10.892Z,6.00
2017-09-11T17:30:36.978Z,5.43
2017-09-11T17:33:04.182Z,6.00
2017-09-11T17:35:31.029Z,4.37
2017-09-11T17:37:57.199Z,5.50
2017-09-11T17:40:23.337Z,4.67
2017-09-11T17:42:50.268Z,5.13
2017-09-11T17:45:16.400Z,5.10
2017-09-11T17:47:42.545Z,5.63
2017-09-11T17:50:08.617Z,6.63
2017-09-11T17:52:35.465Z,5.43
2017-09-11T17:55:01.830Z,5.27
2017-09-11T17:57:27.888Z,5.03
2017-09-11T17:59:54.133Z,5.10
2017-09-11T18:02:20.185Z,4.70
2017-09-11T18:04:47.077Z,7.33
2017-09-11T18:07:13.129Z,5.70
2017-09-11T18:09:39.986Z,4.63
2017-09-11T18:12:06.064Z,5.10
2017-09-11T18:14:32.166Z,6.43
2017-09-11T18:16:58.231Z,5.40
2017-09-11T18:19:24.286Z,6.03
2017-09-11T18:21:50.334Z,5.00
2017-09-11T18:24:16.408Z,4.97
2017-09-11T18:26:43.192Z,4.70
2017-09-11T18:29:09.785Z,5.23
2017-09-11T18:31:35.853Z,4.80
2017-09-11T18:34:02.018Z,4.60
2017-09-11T18:36:28.057Z,4.60
2017-09-11T18:38:54.326Z,3.97
2017-09-11T18:41:20.451Z,4.30
2017-09-11T18:43:46.512Z,4.23
2017-09-11T18:46:12.542Z,3.60
2017-09-11T18:48:38.598Z,5.53
2017-09-11T18:51:04.882Z,3.63
2017-09-11T18:53:30.937Z,5.00
2017-09-11T18:55:56.988Z,4.53
2017-09-11T18:58:23.333Z,4.47
2017-09-11T19:00:49.393Z,4.00
2017-09-11T19:03:16.280Z,3.57
2017-09-11T19:05:43.097Z,3.67
2017-09-11T19:08:09.201Z,4.60
2017-09-11T19:10:35.329Z,3.07
2017-09-11T19:13:01.398Z,3.47
2017-09-11T19:15:27.460Z,4.40
2017-09-11T19:17:53.772Z,4.07
2017-09-11T19:20:19.885Z,3.73
2017-09-11T19:22:45.996Z,3.50
2017-09-11T19:25:12.089Z,4.10
2017-09-11T19:27:38.159Z,3.73
2017-09-11T19:30:04.210Z,4.20
2017-09-11T19:32:30.249Z,3.53
2017-09-11T19:34:56.310Z,3.70
2017-09-11T19:37:23.635Z,3.60
2017-09-11T19:39:50.723Z,4.00
2017-09-11T19:42:16.901Z,4.97
2017-09-11T19:44:43.005Z,5.50
2017-09-11T19:47:09.117Z,4.10
2017-09-11T19:49:35.214Z,5.10
2017-09-11T19:52:01.312Z,4.73
2017-09-11T19:54:27.449Z,4.70
2017-09-11T19:56:53.550Z,4.37
2017-09-11T19:59:19.625Z,4.53
2017-09-11T20:01:45.773Z,4.80
2017-09-11T20:04:11.841Z,5.10
2017-09-11T20:06:38.645Z,4.27
2017-09-11T20:09:04.682Z,3.77
2017-09-11T20:11:31.489Z,3.50
2017-09-11T20:13:57.593Z,4.40
2017-09-11T20:16:23.677Z,3.70
2017-09-11T20:18:49.761Z,4.20
2017-09-11T20:21:15.956Z,3.80
2017-09-11T20:23:42.761Z,5.40
2017-09-11T20:26:08.833Z,4.47
2017-09-11T20:28:34.914Z,4.93
2017-09-11T20:31:00.976Z,4.67
2017-09-11T20:33:27.141Z,4.10
2017-09-11T20:35:53.917Z,4.30
2017-09-11T20:38:19.985Z,3.57
2017-09-11T20:40:46.598Z,4.50
2017-09-11T20:43:12.735Z,3.73
2017-09-11T20:45:38.833Z,3.87
2017-09-11T20:48:04.884Z,3.57
2017-09-11T20:50:30.961Z,4.00
2017-09-11T20:52:57.040Z,4.47
2017-09-11T20:55:23.138Z,3.70
2017-09-11T20:57:49.977Z,3.03
2017-09-11T21:00:16.220Z,3.80
2017-09-11T21:02:42.303Z,3.10
2017-09-11T21:05:09.120Z,3.30
2017-09-11T21:07:35.212Z,4.63
2017-09-11T21:10:02.053Z,3.80
2017-09-11T21:12:28.998Z,4.20
2017-09-11T21:14:55.094Z,3.80
2017-09-11T21:17:21.140Z,3.67
2017-09-11T21:19:47.200Z,2.87
2017-09-11T21:22:13.262Z,3.87
2017-09-11T21:24:39.340Z,4.00
2017-09-11T21:27:05.398Z,3.40
2017-09-11T21:29:32.405Z,3.27
2017-09-11T21:32:00.421Z,3.30
2017-09-11T21:34:28.665Z,3.60
2017-09-11T21:36:57.234Z,4.10
2017-09-11T21:39:25.231Z,3.67
2017-09-11T21:41:59.915Z,4.40
2017-09-11T21:44:27.740Z,4.03
2017-09-11T21:46:55.556Z,5.03
2017-09-11T21:49:23.397Z,3.47
2017-09-11T21:51:51.239Z,4.00
2017-09-11T21:54:19.117Z,3.90
2017-09-11T21:56:46.961Z,3.50
2017-09-11T21:59:14.881Z,3.03
2017-09-11T22:01:42.708Z,3.57
2017-09-11T22:04:10.568Z,4.23
2017-09-11T22:06:38.388Z,3.23
2017-09-11T22:09:06.295Z,2.97
2017-09-11T22:11:34.129Z,3.37
2017-09-11T22:14:02.103Z,4.00
2017-09-11T22:16:29.940Z,3.70
2017-09-11T22:18:57.772Z,3.30
2017-09-11T22:21:25.597Z,3.90
2017-09-11T22:23:53.460Z,4.17
2017-09-11T22:26:21.280Z,2.93
2017-09-11T22:28:49.164Z,4.00
2017-09-11T22:31:17.111Z,3.93
2017-09-11T22:33:44.942Z,3.70
2017-09-11T22:36:12.772Z,3.60
2017-09-11T22:38:40.648Z,3.50
2017-09-11T22:41:08.513Z,4.57
2017-09-11T22:43:36.365Z,4.30
2017-09-11T22:46:04.186Z,3.80
2017-09-11T22:48:31.992Z,5.00
2017-09-11T22:50:59.839Z,3.87
2017-09-11T22:53:27.704Z,3.47
2017-09-11T22:55:55.564Z,4.47
2017-09-11T22:58:23.386Z,4.07
2017-09-11T23:00:52.789Z,3.57
2017-09-11T23:03:20.673Z,3.43
2017-09-11T23:05:48.528Z,5.17
2017-09-11T23:08:16.409Z,5.20
2017-09-11T23:10:44.257Z,4.20
2017-09-11T23:13:12.068Z,3.40
2017-09-11T23:15:39.904Z,3.60
2017-09-11T23:18:07.749Z,4.37
2017-09-11T23:20:35.587Z,4.73
2017-09-11T23:23:03.421Z,4.20
2017-09-11T23:25:31.265Z,4.50
2017-09-11T23:27:59.109Z,4.50
2017-09-11T23:30:26.954Z,4.53
2017-09-11T23:32:54.816Z,4.63
2017-09-11T23:35:22.668Z,4.10
2017-09-11T23:37:50.582Z,4.50
2017-09-11T23:40:18.439Z,4.33
2017-09-11T23:42:46.345Z,4.17
2017-09-11T23:45:14.169Z,3.73
2017-09-11T23:47:41.997Z,3.67
2017-09-11T23:50:09.850Z,4.30
2017-09-11T23:52:37.689Z,4.70
2017-09-11T23:55:05.520Z,5.10
2017-09-11T23:57:33.403Z,4.60
